Time;durP1;ratioP1;P1;durP2;ratioP2;P2;SDS_P1;SDS_P2;PMS_P1;PMS_P2;Temp;Humidity;BMP_temperature;BMP_pressure;BME280_temperature;BME280_humidity;BME280_pressure;Samples;Min_cycle;Max_cycle;Signal;HPM_P1;HPM_P2
2022/02/26 00:00:54;;;;;;;16.70;8.60;;;;;;;3.24;62.01;99984.59;5052344;28;20036;-51
2022/02/26 00:03:19;;;;;;;19.23;8.68;;;;;;;3.42;63.22;99993.31;5052500;28;20043;-49
2022/02/26 00:05:47;;;;;;;19.60;9.10;;;;;;;3.36;63.15;99988.66;5052586;28;20017;-49
2022/02/26 00:08:12;;;;;;;19.30;8.50;;;;;;;3.16;60.98;99997.66;5052730;28;20029;-49
2022/02/26 00:10:38;;;;;;;14.18;8.30;;;;;;;3.26;61.66;99990.53;5052635;28;20021;-48
2022/02/26 00:13:03;;;;;;;21.02;9.82;;;;;;;3.10;61.52;99994.66;5052462;28;20643;-48
2022/02/26 00:15:29;;;;;;;16.05;8.55;;;;;;;2.83;61.63;99986.81;5052259;28;20029;-48
2022/02/26 00:17:54;;;;;;;19.77;9.45;;;;;;;2.80;64.59;99980.06;5052223;28;20029;-50
2022/02/26 00:20:19;;;;;;;18.58;8.82;;;;;;;2.91;62.81;99971.97;5052123;28;20477;-48
2022/02/26 00:22:45;;;;;;;16.83;8.40;;;;;;;2.87;64.18;99973.22;5052208;28;20440;-49
2022/02/26 00:25:11;;;;;;;20.05;9.15;;;;;;;2.72;64.85;99972.91;5052446;28;20048;-48
2022/02/26 00:27:37;;;;;;;23.05;9.75;;;;;;;2.71;64.68;99975.66;5052028;28;20442;-51
2022/02/26 00:30:04;;;;;;;21.40;10.50;;;;;;;2.61;63.22;99982.75;5052278;28;20104;-47
2022/02/26 00:32:30;;;;;;;22.08;10.25;;;;;;;2.60;63.84;99984.56;5052116;28;20028;-49
2022/02/26 00:34:55;;;;;;;19.63;9.98;;;;;;;2.49;63.69;99995.25;5052415;28;20531;-50
2022/02/26 00:37:21;;;;;;;25.45;11.10;;;;;;;2.34;65.95;99987.88;5071998;28;20377;-47
2022/02/26 00:39:46;;;;;;;23.25;11.65;;;;;;;2.19;64.24;99993.72;5072138;28;20059;-50
2022/02/26 00:42:12;;;;;;;22.35;10.52;;;;;;;2.21;64.46;99997.88;5070888;28;20025;-49
2022/02/26 00:44:38;;;;;;;23.52;11.32;;;;;;;2.59;66.84;99998.69;5071754;28;20027;-48
2022/02/26 00:47:05;;;;;;;21.77;10.82;;;;;;;2.71;64.55;99989.63;5071952;28;20100;-47
2022/02/26 00:49:49;;;;;;;19.38;10.02;;;;;;;2.61;62.28;99986.25;5071742;28;20032;-50
2022/02/26 00:52:29;;;;;;;18.40;9.77;;;;;;;2.81;64.13;99991.38;5056398;28;20021;-48
2022/02/26 00:54:55;;;;;;;19.00;9.97;;;;;;;2.83;64.74;99985.00;5052421;28;20481;-48
2022/02/26 00:57:20;;;;;;;21.55;10.27;;;;;;;2.92;65.28;99972.78;5052247;28;20298;-47
2022/02/26 00:59:46;;;;;;;22.80;9.77;;;;;;;2.97;62.92;99983.69;5052441;28;20027;-50
2022/02/26 01:02:12;;;;;;;17.02;9.57;;;;;;;2.68;61.80;99987.28;5051135;28;20440;-48
2022/02/26 01:04:37;;;;;;;19.60;10.02;;;;;;;2.59;63.68;99980.31;5052099;28;20056;-49
2022/02/26 01:07:04;;;;;;;25.17;9.70;;;;;;;2.76;64.38;99973.44;5052250;28;20078;-47
2022/02/26 01:09:29;;;;;;;16.92;9.15;;;;;;;2.66;64.31;99978.72;5052342;28;20049;-48
2022/02/26 01:11:55;;;;;;;19.27;9.75;;;;;;;2.56;62.83;99983.22;5052195;28;20029;-49
2022/02/26 01:14:21;;;;;;;23.10;10.27;;;;;;;2.41;64.61;99972.34;5034365;28;20033;-47
2022/02/26 01:16:46;;;;;;;25.65;10.95;;;;;;;2.30;63.17;99975.16;5051935;28;20133;-51
2022/02/26 01:19:12;;;;;;;22.20;10.27;;;;;;;2.32;64.05;99970.59;5051995;28;20033;-48
2022/02/26 01:21:37;;;;;;;24.65;10.80;;;;;;;2.45;63.23;99978.97;5037045;28;20173;-51
2022/02/26 01:24:03;;;;;;;21.45;11.15;;;;;;;2.41;62.76;99977.59;5071585;28;20452;-47
2022/02/26 01:26:28;;;;;;;19.65;10.18;;;;;;;2.40;63.19;99980.38;5072047;28;20091;-49
2022/02/26 01:28:54;;;;;;;19.13;10.35;;;;;;;2.52;63.25;99982.66;5071752;28;20385;-47
2022/02/26 01:31:20;;;;;;;24.38;12.63;;;;;;;2.62;64.47;99985.25;5070585;28;20416;-50
2022/02/26 01:33:45;;;;;;;31.63;15.73;;;;;;;2.42;65.31;99989.78;5071569;28;20044;-49
2022/02/26 01:36:11;;;;;;;31.10;13.38;;;;;;;2.23;65.58;99988.06;5060912;28;20033;-51
2022/02/26 01:38:36;;;;;;;21.15;11.40;;;;;;;2.33;66.40;99982.75;5051449;28;20354;-48
2022/02/26 01:41:02;;;;;;;27.13;13.02;;;;;;;2.24;65.78;99983.63;5051543;28;20476;-51
2022/02/26 01:43:27;;;;;;;26.92;11.82;;;;;;;2.24;66.14;99976.56;5051804;28;20087;-49
2022/02/26 01:45:53;;;;;;;24.10;11.95;;;;;;;2.30;65.70;99977.78;5051069;28;20046;-51
2022/02/26 01:48:19;;;;;;;28.15;11.32;;;;;;;2.46;65.11;99971.94;5051321;28;20021;-51
2022/02/26 01:50:44;;;;;;;22.00;10.88;;;;;;;2.51;63.01;99978.41;5051004;28;20104;-51
2022/02/26 01:53:10;;;;;;;23.83;11.75;;;;;;;2.39;65.62;99979.56;5034875;28;20025;-52
2022/02/26 01:55:36;;;;;;;21.20;9.32;;;;;;;2.47;65.45;99982.28;5031580;28;20033;-51
2022/02/26 01:58:02;;;;;;;20.60;9.50;;;;;;;2.46;64.91;99979.81;5030137;28;20159;-52
2022/02/26 02:00:27;;;;;;;19.20;8.15;;;;;;;2.42;64.59;99979.28;5031470;28;20044;-50
2022/02/26 02:02:54;;;;;;;16.67;7.97;;;;;;;2.51;65.81;99970.53;5050879;28;20478;-50
2022/02/26 02:05:20;;;;;;;17.17;7.97;;;;;;;2.39;65.33;99968.22;5051657;28;20106;-49
2022/02/26 02:07:45;;;;;;;14.15;8.13;;;;;;;2.35;64.51;99963.25;5051344;28;20480;-51
2022/02/26 02:10:11;;;;;;;18.25;8.10;;;;;;;2.20;64.88;99979.63;5049847;28;20037;-49
2022/02/26 02:12:36;;;;;;;15.48;7.93;;;;;;;2.22;66.06;99975.06;5050981;28;20025;-47
2022/02/26 02:15:02;;;;;;;19.38;8.85;;;;;;;2.21;63.87;99978.66;5049496;28;20560;-47
2022/02/26 02:17:27;;;;;;;21.67;9.73;;;;;;;2.18;64.80;99971.06;5050993;28;20053;-48
2022/02/26 02:19:53;;;;;;;24.80;9.85;;;;;;;2.05;64.34;99974.00;5050618;28;20393;-48
2022/02/26 02:22:19;;;;;;;21.67;9.18;;;;;;;1.90;65.68;99974.44;5052759;28;20122;-48
2022/02/26 02:24:45;;;;;;;18.95;9.55;;;;;;;1.85;66.45;99968.81;5070917;28;20365;-48
2022/02/26 02:27:10;;;;;;;20.77;9.95;;;;;;;1.74;66.30;99968.97;5071156;28;20498;-51
2022/02/26 02:29:35;;;;;;;18.63;9.20;;;;;;;1.67;66.09;99973.13;5036637;28;20540;-49
2022/02/26 02:32:01;;;;;;;21.13;9.23;;;;;;;1.85;65.25;99976.69;5070782;28;20033;-51
2022/02/26 02:34:27;;;;;;;22.60;9.50;;;;;;;1.90;65.10;99984.13;5070521;28;20071;-51
2022/02/26 02:36:52;;;;;;;19.00;9.30;;;;;;;1.96;66.92;99975.66;5087719;28;20036;-52
2022/02/26 02:39:18;;;;;;;23.00;11.00;;;;;;;2.01;65.72;99980.50;5091121;28;20066;-48
2022/02/26 02:41:43;;;;;;;19.95;10.57;;;;;;;1.94;67.52;99972.38;5091113;28;20023;-51
2022/02/26 02:44:13;;;;;;;35.78;13.35;;;;;;;1.70;65.34;99972.84;5090885;28;20031;-49
2022/02/26 02:46:38;;;;;;;33.75;16.50;;;;;;;1.90;66.44;99976.25;5091001;28;20031;-49
2022/02/26 02:49:04;;;;;;;35.58;16.55;;;;;;;1.95;66.94;99974.03;5091381;28;20032;-50
2022/02/26 02:51:29;;;;;;;41.28;18.42;;;;;;;2.09;65.54;99981.44;5090443;28;20031;-48
2022/02/26 02:53:55;;;;;;;33.53;15.98;;;;;;;2.03;65.28;99986.44;5090724;28;20028;-48
2022/02/26 02:56:20;;;;;;;34.28;16.73;;;;;;;2.01;65.20;99989.22;5091155;28;20503;-51
2022/02/26 02:58:46;;;;;;;27.33;12.85;;;;;;;1.93;67.24;99999.59;5072926;28;20061;-50
2022/02/26 03:01:11;;;;;;;24.63;10.70;;;;;;;2.00;66.52;99984.09;5084867;28;20036;-51
2022/02/26 03:03:37;;;;;;;22.02;10.13;;;;;;;2.19;66.15;99997.19;5070637;28;20020;-50
2022/02/26 03:06:02;;;;;;;20.35;10.30;;;;;;;2.09;65.01;99989.31;5072937;28;20044;-49
2022/02/26 03:08:28;;;;;;;20.77;10.18;;;;;;;2.06;67.25;99999.31;5074531;28;20029;-49
2022/02/26 03:10:54;;;;;;;21.67;10.55;;;;;;;1.98;66.67;99994.75;5074588;28;20029;-51
2022/02/26 03:13:20;;;;;;;20.55;10.45;;;;;;;2.11;66.03;99994.44;5074202;28;20099;-51
2022/02/26 03:15:47;;;;;;;21.95;10.32;;;;;;;1.96;66.10;99999.28;5074106;28;20093;-50
2022/02/26 03:18:12;;;;;;;19.92;11.23;;;;;;;2.00;65.92;100003.31;5074032;28;20111;-51
2022/02/26 03:20:38;;;;;;;19.55;10.02;;;;;;;2.09;67.02;100001.63;5056454;28;20036;-49
2022/02/26 03:23:03;;;;;;;21.77;10.45;;;;;;;2.04;66.76;99996.00;5059391;28;20052;-50
2022/02/26 03:25:28;;;;;;;20.58;10.57;;;;;;;1.94;66.75;99998.63;5054045;28;20458;-52
2022/02/26 03:27:54;;;;;;;19.27;10.18;;;;;;;1.92;66.30;99998.78;5054063;28;20124;-50
2022/02/26 03:30:19;;;;;;;23.92;11.85;;;;;;;1.90;66.83;100000.69;5053920;28;20029;-50
2022/02/26 03:32:45;;;;;;;20.55;10.80;;;;;;;1.86;67.30;100001.94;5053929;28;20024;-53
2022/02/26 03:35:10;;;;;;;27.02;12.52;;;;;;;1.77;68.00;99994.91;5056319;28;20035;-49
2022/02/26 03:37:36;;;;;;;25.70;11.85;;;;;;;1.55;67.91;100010.00;5073879;28;20025;-47
2022/02/26 03:40:03;;;;;;;25.13;11.55;;;;;;;1.52;66.36;100018.16;5069270;28;20082;-49
2022/02/26 03:42:28;;;;;;;28.88;12.57;;;;;;;1.46;65.98;100017.88;5053828;28;20031;-48
2022/02/26 03:44:54;;;;;;;20.40;11.65;;;;;;;1.34;68.72;100019.78;5053642;28;20029;-49
2022/02/26 03:47:19;;;;;;;26.10;12.20;;;;;;;1.44;68.39;100031.09;5053902;28;20040;-48
2022/02/26 03:49:45;;;;;;;26.05;13.05;;;;;;;1.51;69.25;100020.91;5053571;28;20040;-51
2022/02/26 03:52:11;;;;;;;25.73;11.95;;;;;;;1.62;69.07;100031.28;5053605;28;20505;-48
2022/02/26 03:54:36;;;;;;;21.80;11.90;;;;;;;1.50;68.68;100027.94;5053616;28;20033;-49
2022/02/26 03:57:02;;;;;;;26.77;13.02;;;;;;;1.78;67.41;100022.81;5053519;28;20048;-47
2022/02/26 03:59:28;;;;;;;27.95;12.13;;;;;;;1.74;67.54;100031.94;5053667;28;20465;-47
2022/02/26 04:01:53;;;;;;;26.23;12.38;;;;;;;1.77;67.60;100031.66;5015914;28;20071;-48
2022/02/26 04:04:19;;;;;;;24.58;12.70;;;;;;;1.77;66.36;100026.41;5033897;28;20120;-49
2022/02/26 04:06:44;;;;;;;30.10;13.73;;;;;;;1.77;66.08;100031.66;5033435;28;20033;-48
2022/02/26 04:09:10;;;;;;;33.72;13.75;;;;;;;1.79;67.07;100036.75;5033610;28;20070;-50
2022/02/26 04:11:35;;;;;;;30.27;12.38;;;;;;;1.64;69.28;100042.44;5033451;28;20087;-50
2022/02/26 04:14:01;;;;;;;25.77;13.10;;;;;;;1.88;66.69;100047.25;5033016;28;20036;-48
2022/02/26 04:16:26;;;;;;;34.38;12.05;;;;;;;1.62;68.09;100043.53;5032827;28;20107;-49
2022/02/26 04:18:52;;;;;;;24.52;12.15;;;;;;;1.86;66.85;100048.38;5033210;28;20105;-49
2022/02/26 04:21:17;;;;;;;24.77;11.82;;;;;;;1.95;66.23;100034.41;5032987;28;20025;-50
2022/02/26 04:23:42;;;;;;;23.90;12.20;;;;;;;2.78;62.51;100036.34;5052852;28;20460;-51
2022/02/26 04:26:08;;;;;;;22.80;11.23;;;;;;;2.33;62.97;100035.28;5052727;28;20021;-49
2022/02/26 04:28:34;;;;;;;19.67;10.20;;;;;;;1.82;65.15;100044.38;5051920;28;20040;-51
2022/02/26 04:30:59;;;;;;;23.23;11.15;;;;;;;1.86;68.21;100041.31;5052405;28;20028;-49
2022/02/26 04:33:27;;;;;;;24.45;10.73;;;;;;;2.30;65.13;100044.28;5052315;28;20047;-51
2022/02/26 04:35:52;;;;;;;24.25;11.00;;;;;;;2.70;62.82;100042.34;5060870;28;20464;-48
2022/02/26 04:38:18;;;;;;;21.20;10.02;;;;;;;2.34;64.11;100047.44;5072214;28;20039;-48
2022/02/26 04:40:43;;;;;;;21.20;10.10;;;;;;;2.15;65.16;100051.78;5072079;28;20112;-48
2022/02/26 04:43:08;;;;;;;19.33;10.07;;;;;;;1.70;64.84;100051.56;5072357;28;20124;-47
2022/02/26 04:45:34;;;;;;;20.45;10.50;;;;;;;1.79;66.21;100058.59;5072317;28;20029;-50
2022/02/26 04:48:00;;;;;;;18.35;9.60;;;;;;;1.86;66.20;100066.75;5072337;28;20020;-48
2022/02/26 04:50:26;;;;;;;17.27;10.07;;;;;;;1.74;64.76;100071.31;5071206;28;20465;-49
2022/02/26 04:52:51;;;;;;;20.52;8.77;;;;;;;1.89;65.71;100064.66;5071982;28;20028;-47
2022/02/26 04:55:17;;;;;;;17.92;8.43;;;;;;;1.99;64.52;100076.97;5072064;28;20028;-51
2022/02/26 04:57:44;;;;;;;20.02;9.68;;;;;;;2.02;64.14;100074.03;5072059;28;20024;-47
2022/02/26 05:00:10;;;;;;;17.08;9.30;;;;;;;1.63;65.34;100084.56;5072013;28;20032;-50
2022/02/26 05:02:36;;;;;;;16.85;9.00;;;;;;;1.53;65.82;100092.44;5054201;28;20046;-47
2022/02/26 05:05:02;;;;;;;16.25;8.13;;;;;;;1.38;65.66;100097.22;5051752;28;20481;-48
2022/02/26 05:07:27;;;;;;;15.20;7.72;;;;;;;1.42;64.98;100106.47;5051971;28;20036;-48
2022/02/26 05:09:53;;;;;;;12.73;6.50;;;;;;;1.48;63.41;100111.19;5051871;28;20037;-49
2022/02/26 05:12:18;;;;;;;15.18;6.90;;;;;;;1.15;65.60;100104.50;5051855;28;20056;-51
2022/02/26 05:14:43;;;;;;;15.63;6.88;;;;;;;1.46;65.09;100113.09;5034089;28;20397;-50
2022/02/26 05:17:09;;;;;;;14.85;6.97;;;;;;;1.30;65.02;100090.03;5052114;28;20029;-50
2022/02/26 05:19:34;;;;;;;12.90;6.60;;;;;;;1.70;65.95;100128.47;5051874;28;20036;-48
2022/02/26 05:22:00;;;;;;;14.60;6.55;;;;;;;1.74;63.45;100127.22;5051464;28;20409;-49
2022/02/26 05:24:25;;;;;;;14.65;7.20;;;;;;;1.58;63.02;100128.72;5051762;28;20021;-51
2022/02/26 05:26:51;;;;;;;10.32;6.55;;;;;;;1.80;65.05;100138.16;5051435;28;20032;-49
2022/02/26 05:29:16;;;;;;;13.07;6.80;;;;;;;2.12;65.15;100140.50;5050594;28;20039;-51
2022/02/26 05:31:42;;;;;;;14.00;6.78;;;;;;;2.30;64.09;100138.84;5050974;28;20035;-53
2022/02/26 05:34:07;;;;;;;18.60;7.68;;;;;;;2.51;60.97;100145.69;5050850;28;20063;-51
2022/02/26 05:36:33;;;;;;;20.77;8.15;;;;;;;2.56;61.26;100135.59;5064694;28;20504;-47
2022/02/26 05:38:58;;;;;;;19.00;8.43;;;;;;;3.65;57.98;100129.72;5070278;28;20021;-50
2022/02/26 05:41:24;;;;;;;20.27;9.23;;;;;;;3.39;57.64;100143.59;5055146;28;20028;-49
2022/02/26 05:43:49;;;;;;;22.02;9.40;;;;;;;3.15;58.51;100151.19;5050701;28;20037;-48
2022/02/26 05:46:15;;;;;;;20.40;9.15;;;;;;;3.17;58.55;100162.41;5050797;28;20029;-50
2022/02/26 05:48:40;;;;;;;16.70;9.25;;;;;;;3.11;57.56;100158.53;5050662;28;20032;-50
2022/02/26 05:51:07;;;;;;;39.20;18.40;;;;;;;3.26;57.82;100172.88;5050565;28;20400;-52
2022/02/26 05:53:32;;;;;;;53.17;29.23;;;;;;;4.20;57.39;100179.59;5050563;28;20698;-49
2022/02/26 05:55:57;;;;;;;22.67;11.02;;;;;;;4.98;55.82;100175.38;5050439;28;20040;-49
2022/02/26 05:58:23;;;;;;;32.42;15.05;;;;;;;4.99;56.38;100187.56;5050433;28;20427;-48
2022/02/26 06:00:49;;;;;;;37.38;15.43;;;;;;;5.37;53.76;100186.28;5050459;28;20044;-52
2022/02/26 06:03:15;;;;;;;34.63;16.00;;;;;;;5.58;53.28;100182.38;5050136;28;20397;-49
2022/02/26 06:05:41;;;;;;;21.30;10.60;;;;;;;5.64;51.84;100181.78;5050362;28;20116;-48
2022/02/26 06:08:06;;;;;;;40.47;16.90;;;;;;;6.18;52.42;100187.50;5050425;28;20100;-51
2022/02/26 06:10:32;;;;;;;24.88;11.70;;;;;;;6.63;49.38;100164.22;5050593;28;20036;-49
2022/02/26 06:12:57;;;;;;;20.13;11.38;;;;;;;6.51;47.73;100197.25;5050575;28;20480;-50
2022/02/26 06:15:23;;;;;;;23.45;10.90;;;;;;;6.26;47.70;100202.53;5050252;28;20025;-50
2022/02/26 06:17:49;;;;;;;19.60;10.45;;;;;;;6.24;48.03;100204.53;5050038;28;20028;-52
2022/02/26 06:20:14;;;;;;;24.13;10.90;;;;;;;6.41;47.80;100202.72;5050253;28;20021;-49
2022/02/26 06:22:39;;;;;;;22.65;10.93;;;;;;;6.56;47.89;100195.78;5050267;28;20071;-48
2022/02/26 06:25:05;;;;;;;21.65;10.57;;;;;;;6.79;48.29;100203.84;5048450;28;20025;-49
2022/02/26 06:27:35;;;;;;;21.65;10.85;;;;;;;6.97;47.05;100202.84;5032083;28;20099;-48
2022/02/26 06:30:01;;;;;;;21.45;11.18;;;;;;;6.90;46.75;100199.22;5030274;28;20026;-36
2022/02/26 06:32:26;;;;;;;22.63;11.43;;;;;;;7.13;48.13;100199.31;5030139;28;20018;-37
2022/02/26 06:34:52;;;;;;;31.05;10.07;;;;;;;7.52;45.72;100203.81;5030150;28;20121;-39
2022/02/26 06:37:17;;;;;;;24.08;10.25;;;;;;;7.84;44.47;100205.47;5031948;28;20025;-38
2022/02/26 06:39:43;;;;;;;22.48;11.98;;;;;;;7.94;44.45;100214.03;5051789;28;20408;-38
2022/02/26 06:42:08;;;;;;;22.50;11.52;;;;;;;7.93;43.93;100224.81;5053963;28;20098;-37
2022/02/26 06:44:33;;;;;;;20.08;11.48;;;;;;;8.15;43.57;100226.66;5054189;28;20017;-37
2022/02/26 06:46:59;;;;;;;24.10;11.73;;;;;;;8.38;42.90;100233.81;5039735;28;20410;-37
2022/02/26 06:49:24;;;;;;;27.25;14.63;;;;;;;8.43;42.59;100233.28;5033768;28;20099;-50
2022/02/26 06:51:50;;;;;;;27.63;13.07;;;;;;;8.57;43.53;100238.66;5034154;28;20025;-51
2022/02/26 06:54:15;;;;;;;24.05;13.15;;;;;;;8.73;42.12;100236.88;5034727;28;20033;-50
2022/02/26 06:56:41;;;;;;;25.73;13.27;;;;;;;8.77;43.02;100240.81;5045377;28;20044;-48
2022/02/26 06:59:06;;;;;;;21.58;12.15;;;;;;;9.09;41.90;100231.72;5053134;28;20474;-48
2022/02/26 07:01:33;;;;;;;20.05;12.35;;;;;;;9.39;41.86;100237.03;5053193;28;20036;-49
2022/02/26 07:03:59;;;;;;;21.33;12.30;;;;;;;9.38;40.54;100238.84;5052518;28;20108;-49
2022/02/26 07:06:24;;;;;;;22.45;12.45;;;;;;;9.53;40.65;100235.38;5052356;28;20024;-50
2022/02/26 07:08:49;;;;;;;23.42;12.02;;;;;;;9.17;40.58;100217.53;5053056;28;20449;-50
2022/02/26 07:11:15;;;;;;;21.98;12.18;;;;;;;9.47;40.05;100228.16;5052740;28;20065;-51
2022/02/26 07:13:40;;;;;;;21.05;11.60;;;;;;;9.68;39.63;100227.41;5051673;28;20025;-49
2022/02/26 07:16:06;;;;;;;19.65;11.35;;;;;;;9.70;38.85;100223.53;5052129;28;20488;-50
2022/02/26 07:18:32;;;;;;;22.30;11.30;;;;;;;9.67;39.84;100226.59;5052214;28;20029;-51
2022/02/26 07:20:57;;;;;;;20.92;11.50;;;;;;;9.88;39.48;100233.78;5052295;28;20479;-50
2022/02/26 07:23:22;;;;;;;17.75;10.93;;;;;;;10.43;38.13;100244.78;5051520;28;20053;-47
2022/02/26 07:25:48;;;;;;;17.27;10.75;;;;;;;10.10;37.88;100241.78;5052069;28;20036;-37
2022/02/26 07:28:13;;;;;;;18.00;10.43;;;;;;;10.30;37.88;100248.16;5052547;28;20028;-37
2022/02/26 07:30:39;;;;;;;19.67;9.98;;;;;;;10.72;37.71;100243.84;5034999;28;20626;-38
2022/02/26 07:33:05;;;;;;;17.65;10.02;;;;;;;10.99;36.66;100246.72;5052817;28;20040;-38
2022/02/26 07:35:31;;;;;;;15.05;9.68;;;;;;;11.39;36.45;100246.16;5057893;28;20036;-37
2022/02/26 07:37:56;;;;;;;16.20;9.45;;;;;;;11.39;36.59;100246.97;5072533;28;20059;-38
2022/02/26 07:40:22;;;;;;;19.85;9.98;;;;;;;11.47;35.17;100238.00;5065519;28;20029;-39
2022/02/26 07:42:48;;;;;;;17.38;9.85;;;;;;;11.59;35.68;100247.06;5052748;28;20338;-38
2022/02/26 07:45:15;;;;;;;18.10;9.80;;;;;;;11.62;36.31;100244.00;5052179;28;20029;-38
2022/02/26 07:47:41;;;;;;;17.58;10.70;;;;;;;11.91;34.45;100244.78;5052508;28;20103;-37
2022/02/26 07:50:07;;;;;;;18.77;10.38;;;;;;;11.62;35.77;100236.00;5052165;28;20158;-37
2022/02/26 07:52:33;;;;;;;18.85;10.07;;;;;;;11.61;35.87;100237.03;5051727;28;20045;-38
2022/02/26 07:54:59;;;;;;;17.80;10.52;;;;;;;11.82;35.10;100229.94;5052181;28;20020;-37
2022/02/26 07:57:25;;;;;;;19.10;10.38;;;;;;;11.73;35.57;100229.31;5052399;28;20439;-38
2022/02/26 07:59:51;;;;;;;16.73;9.73;;;;;;;11.89;34.88;100222.78;5052641;28;20033;-37
2022/02/26 08:02:16;;;;;;;17.05;10.50;;;;;;;11.76;35.30;100220.06;5051771;28;20083;-38
2022/02/26 08:04:42;;;;;;;18.50;10.23;;;;;;;11.95;34.94;100227.34;5051970;28;20024;-37
2022/02/26 08:07:07;;;;;;;18.38;10.48;;;;;;;12.35;34.92;100230.09;5052328;28;20039;-37
2022/02/26 08:09:33;;;;;;;32.30;17.98;;;;;;;12.42;35.07;100224.78;5051896;28;20013;-38
2022/02/26 08:11:58;;;;;;;21.50;12.75;;;;;;;12.36;34.06;100226.41;5052276;28;20495;-37
2022/02/26 08:14:24;;;;;;;19.13;11.23;;;;;;;12.35;34.19;100230.09;5052202;28;20028;-37
2022/02/26 08:16:49;;;;;;;19.38;10.93;;;;;;;12.43;33.91;100221.91;5052276;28;20025;-38
2022/02/26 08:19:15;;;;;;;19.38;10.85;;;;;;;12.66;33.81;100220.69;5052373;28;20078;-38
2022/02/26 08:21:40;;;;;;;21.48;10.95;;;;;;;12.97;33.93;100219.25;5052270;28;20052;-38
2022/02/26 08:24:06;;;;;;;20.92;11.07;;;;;;;13.00;34.49;100218.81;5052317;28;20029;-37
2022/02/26 08:26:32;;;;;;;22.75;11.18;;;;;;;13.46;34.41;100224.09;5051811;28;20028;-38
2022/02/26 08:28:58;;;;;;;19.80;10.75;;;;;;;13.54;32.78;100219.56;5052509;28;20052;-38
2022/02/26 08:31:23;;;;;;;21.30;10.60;;;;;;;13.60;32.08;100211.50;5052236;28;20020;-38
2022/02/26 08:33:49;;;;;;;19.00;11.38;;;;;;;13.71;35.76;100211.84;5052130;28;20021;-38
2022/02/26 08:36:14;;;;;;;18.65;9.98;;;;;;;13.74;32.38;100211.44;5063248;28;20043;-37
2022/02/26 08:38:40;;;;;;;18.85;11.43;;;;;;;13.89;33.42;100206.63;5054094;28;20024;-38
2022/02/26 08:41:05;;;;;;;17.23;11.10;;;;;;;13.77;32.87;100205.66;5072162;28;20024;-38
2022/02/26 08:43:31;;;;;;;16.42;10.55;;;;;;;13.66;31.87;100205.28;5072023;28;20021;-39
2022/02/26 08:45:56;;;;;;;18.88;10.50;;;;;;;13.91;31.50;100201.88;5071700;28;20345;-37
2022/02/26 08:48:22;;;;;;;17.50;10.07;;;;;;;14.01;30.83;100190.72;5071524;28;20025;-39
2022/02/26 08:50:47;;;;;;;17.40;11.38;;;;;;;14.10;30.78;100193.97;5072039;28;20051;-39
2022/02/26 08:53:13;;;;;;;22.67;11.10;;;;;;;13.54;31.92;100179.44;5071670;28;20028;-37
2022/02/26 08:55:38;;;;;;;16.20;9.27;;;;;;;13.24;31.60;100169.22;5056217;28;20181;-38
2022/02/26 08:58:04;;;;;;;17.95;9.32;;;;;;;13.55;32.02;100186.41;5033323;28;20025;-38
2022/02/26 09:00:29;;;;;;;21.10;10.60;;;;;;;13.39;32.98;100191.22;5050643;28;20457;-37
2022/02/26 09:02:55;;;;;;;15.98;10.25;;;;;;;13.75;31.64;100181.81;5047247;28;20047;-39
2022/02/26 09:05:21;;;;;;;22.65;10.60;;;;;;;13.74;31.80;100176.66;5046491;28;20044;-38
2022/02/26 09:07:46;;;;;;;17.42;10.05;;;;;;;13.74;31.54;100184.69;5033548;28;20076;-38
2022/02/26 09:10:13;;;;;;;17.48;10.40;;;;;;;14.07;31.15;100187.19;5030633;28;20453;-42
2022/02/26 09:12:38;;;;;;;19.92;11.40;;;;;;;13.60;32.03;100181.25;5046986;28;20028;-38
2022/02/26 09:15:04;;;;;;;19.92;10.68;;;;;;;13.14;32.45;100175.03;5050682;28;20060;-37
2022/02/26 09:17:30;;;;;;;19.65;11.63;;;;;;;13.19;32.72;100175.19;5048152;28;20428;-38
2022/02/26 09:19:55;;;;;;;24.00;12.10;;;;;;;13.02;33.59;100155.31;5050916;28;20025;-38
2022/02/26 09:22:21;;;;;;;21.45;12.73;;;;;;;13.73;32.56;100170.50;5048368;28;20087;-37
2022/02/26 09:24:46;;;;;;;22.75;12.48;;;;;;;13.82;32.09;100165.72;5047222;28;20055;-38
2022/02/26 09:27:12;;;;;;;19.67;11.85;;;;;;;13.88;32.56;100164.88;5050271;28;20033;-38
2022/02/26 09:29:37;;;;;;;27.02;12.10;;;;;;;13.98;31.99;100165.22;5047144;28;20075;-38
2022/02/26 09:32:03;;;;;;;16.65;10.30;;;;;;;14.23;30.69;100161.75;5050067;28;20029;-37
2022/02/26 09:34:29;;;;;;;17.13;10.70;;;;;;;14.54;30.50;100165.41;5050796;28;20029;-37
2022/02/26 09:36:54;;;;;;;17.88;10.23;;;;;;;14.17;30.07;100157.28;5057289;28;20032;-38
2022/02/26 09:39:20;;;;;;;18.83;10.05;;;;;;;13.80;30.48;100159.75;5049515;28;20033;-38
2022/02/26 09:41:50;;;;;;;18.35;9.98;;;;;;;12.98;31.86;100160.25;5049444;28;20040;-37
2022/02/26 09:44:16;;;;;;;19.95;11.80;;;;;;;12.95;33.77;100152.66;5049834;28;20036;-38
2022/02/26 09:46:42;;;;;;;17.00;10.15;;;;;;;13.42;31.53;100144.50;5050662;28;20115;-38
2022/02/26 09:49:07;;;;;;;16.35;9.98;;;;;;;13.48;31.22;100143.69;5050824;28;20099;-38
2022/02/26 09:51:33;;;;;;;14.23;9.20;;;;;;;13.55;30.65;100143.63;5050705;28;20102;-38
2022/02/26 09:53:59;;;;;;;17.55;9.60;;;;;;;13.86;30.42;100143.69;5032954;28;20028;-38
2022/02/26 09:56:25;;;;;;;18.52;9.80;;;;;;;13.58;31.05;100135.19;5050557;28;20025;-38
2022/02/26 09:58:51;;;;;;;16.52;9.73;;;;;;;13.84;30.88;100136.88;5050436;28;20096;-38
2022/02/26 10:01:16;;;;;;;38.03;18.65;;;;;;;13.67;34.05;100137.41;5023610;28;20024;-38
2022/02/26 10:03:43;;;;;;;15.27;9.70;;;;;;;13.17;31.65;100120.31;5036627;28;20032;-38
2022/02/26 10:06:11;;;;;;;16.25;9.30;;;;;;;12.81;32.03;100121.66;5016039;28;20024;-39
2022/02/26 10:08:55;;;;;;;56.13;32.10;;;;;;;13.56;32.13;100119.38;5050762;28;20060;-39
2022/02/26 10:11:26;;;;;;;36.05;20.30;;;;;;;13.73;31.46;100119.69;5050142;28;20036;-38
2022/02/26 10:14:02;;;;;;;19.05;10.48;;;;;;;13.96;31.22;100127.16;5049896;28;20021;-39
2022/02/26 10:16:50;;;;;;;20.00;11.82;;;;;;;13.58;32.39;100124.50;5049893;28;20107;-38
2022/02/26 10:19:23;;;;;;;21.60;11.93;;;;;;;13.71;31.99;100116.41;5049846;28;20021;-38
2022/02/26 10:21:48;;;;;;;17.10;10.60;;;;;;;13.80;31.25;100120.47;5049644;28;20045;-38
2022/02/26 10:24:14;;;;;;;19.52;10.73;;;;;;;14.14;31.03;100117.56;5052059;28;20029;-38
2022/02/26 10:26:40;;;;;;;15.55;9.35;;;;;;;13.81;31.89;100110.59;5049536;28;20636;-38
2022/02/26 10:29:10;;;;;;;15.95;9.45;;;;;;;14.08;31.26;100113.88;5049493;28;20029;-38
2022/02/26 10:31:46;;;;;;;17.17;10.23;;;;;;;14.12;30.81;100103.56;5048129;28;20649;-38
2022/02/26 10:34:34;;;;;;;16.77;11.23;;;;;;;14.25;30.83;100106.13;5047295;28;20385;-38
2022/02/26 10:37:07;;;;;;;19.88;11.10;;;;;;;13.91;31.22;100105.56;5047155;28;20033;-38
2022/02/26 10:39:36;;;;;;;23.35;11.95;;;;;;;13.94;31.35;100093.63;5046330;28;20029;-38
2022/02/26 10:42:02;;;;;;;;;;;;;;;14.10;31.83;100098.44;5047955;28;20049;-38
2022/02/26 10:44:28;;;;;;;20.58;12.00;;;;;;;14.63;30.10;100092.63;5034393;28;19928;-38
2022/02/26 10:47:03;;;;;;;21.25;12.82;;;;;;;13.72;31.92;100101.19;5054567;28;20024;-37
2022/02/26 10:49:29;;;;;;;25.83;13.50;;;;;;;13.00;33.52;100087.91;5037292;28;20043;-38
2022/02/26 10:51:55;;;;;;;18.25;12.32;;;;;;;13.35;32.95;100095.63;5019064;28;20457;-37
2022/02/26 10:54:25;;;;;;;22.25;13.00;;;;;;;13.58;32.62;100089.75;5049792;28;20025;-39
2022/02/26 10:56:51;;;;;;;22.48;12.10;;;;;;;13.48;32.59;100084.88;5049493;28;20021;-36
2022/02/26 10:59:30;;;;;;;20.08;11.82;;;;;;;14.03;32.71;100085.13;5048901;28;20013;-37
2022/02/26 11:02:22;;;;;;;20.83;12.50;;;;;;;14.40;31.38;100090.56;5048946;28;20033;-38
2022/02/26 11:04:48;;;;;;;21.67;11.77;;;;;;;14.67;31.79;100076.94;5048542;28;20112;-50
2022/02/26 11:07:14;;;;;;;21.45;11.63;;;;;;;14.60;31.78;100073.50;5048446;28;20020;-49
2022/02/26 11:09:41;;;;;;;20.85;12.13;;;;;;;14.56;32.16;100077.66;5030861;28;20090;-50
2022/02/26 11:12:07;;;;;;;19.23;10.73;;;;;;;14.65;31.67;100073.66;5049319;28;20090;-49
2022/02/26 11:14:33;;;;;;;15.32;10.35;;;;;;;14.65;31.77;100074.47;5049195;28;20029;-50